sensor_id;sensor_type;location;lat;lon;timestamp;P1;durP1;ratioP1;P2;durP2;ratioP2
76447;SDS011;65284;51.040;13.722;2023-04-24T00:01:59;6.93;;;3.80;;
76447;SDS011;65284;51.040;13.722;2023-04-24T00:04:27;6.40;;;3.97;;
76447;SDS011;65284;51.040;13.722;2023-04-24T00:06:54;7.68;;;4.30;;
76447;SDS011;65284;51.040;13.722;2023-04-24T00:09:23;7.28;;;4.07;;
76447;SDS011;65284;51.040;13.722;2023-04-24T00:11:50;9.07;;;4.10;;
76447;SDS011;65284;51.040;13.722;2023-04-24T00:14:16;6.03;;;3.90;;
76447;SDS011;65284;51.040;13.722;2023-04-24T00:16:43;6.95;;;4.05;;
76447;SDS011;65284;51.040;13.722;2023-04-24T00:19:09;7.82;;;3.88;;
76447;SDS011;65284;51.040;13.722;2023-04-24T00:21:38;8.90;;;4.00;;
76447;SDS011;65284;51.040;13.722;2023-04-24T00:24:04;6.30;;;3.88;;
76447;SDS011;65284;51.040;13.722;2023-04-24T00:26:31;8.65;;;4.05;;
76447;SDS011;65284;51.040;13.722;2023-04-24T00:28:57;7.97;;;4.40;;
76447;SDS011;65284;51.040;13.722;2023-04-24T00:31:24;8.27;;;4.22;;
76447;SDS011;65284;51.040;13.722;2023-04-24T00:33:50;7.30;;;3.97;;
76447;SDS011;65284;51.040;13.722;2023-04-24T00:36:16;7.53;;;4.30;;
76447;SDS011;65284;51.040;13.722;2023-04-24T00:38:45;8.38;;;4.03;;
76447;SDS011;65284;51.040;13.722;2023-04-24T00:41:12;6.55;;;3.72;;
76447;SDS011;65284;51.040;13.722;2023-04-24T00:43:39;7.97;;;4.40;;
76447;SDS011;65284;51.040;13.722;2023-04-24T00:46:05;6.68;;;4.25;;
76447;SDS011;65284;51.040;13.722;2023-04-24T00:48:32;7.28;;;4.25;;
76447;SDS011;65284;51.040;13.722;2023-04-24T00:50:58;6.47;;;4.05;;
76447;SDS011;65284;51.040;13.722;2023-04-24T00:53:25;7.05;;;4.28;;
76447;SDS011;65284;51.040;13.722;2023-04-24T00:55:51;8.07;;;4.20;;
76447;SDS011;65284;51.040;13.722;2023-04-24T00:58:18;7.68;;;4.55;;
76447;SDS011;65284;51.040;13.722;2023-04-24T01:00:45;8.38;;;4.70;;
76447;SDS011;65284;51.040;13.722;2023-04-24T01:03:12;6.53;;;4.25;;
76447;SDS011;65284;51.040;13.722;2023-04-24T01:05:40;7.45;;;4.30;;
76447;SDS011;65284;51.040;13.722;2023-04-24T01:08:07;7.65;;;4.18;;
76447;SDS011;65284;51.040;13.722;2023-04-24T01:10:34;6.53;;;3.65;;
76447;SDS011;65284;51.040;13.722;2023-04-24T01:13:02;7.70;;;4.40;;
76447;SDS011;65284;51.040;13.722;2023-04-24T01:15:29;6.80;;;4.28;;
76447;SDS011;65284;51.040;13.722;2023-04-24T01:17:55;8.60;;;4.25;;
76447;SDS011;65284;51.040;13.722;2023-04-24T01:20:22;6.60;;;4.18;;
76447;SDS011;65284;51.040;13.722;2023-04-24T01:22:53;7.80;;;4.22;;
76447;SDS011;65284;51.040;13.722;2023-04-24T01:25:20;6.32;;;4.15;;
76447;SDS011;65284;51.040;13.722;2023-04-24T01:27:47;7.05;;;4.22;;
76447;SDS011;65284;51.040;13.722;2023-04-24T01:30:14;7.15;;;4.18;;
76447;SDS011;65284;51.040;13.722;2023-04-24T01:32:41;8.25;;;4.20;;
76447;SDS011;65284;51.040;13.722;2023-04-24T01:35:10;6.93;;;4.20;;
76447;SDS011;65284;51.040;13.722;2023-04-24T01:37:36;6.97;;;4.40;;
76447;SDS011;65284;51.040;13.722;2023-04-24T01:40:04;7.65;;;4.13;;
76447;SDS011;65284;51.040;13.722;2023-04-24T01:42:33;6.90;;;4.28;;
76447;SDS011;65284;51.040;13.722;2023-04-24T01:45:01;9.95;;;4.47;;
76447;SDS011;65284;51.040;13.722;2023-04-24T01:47:29;8.13;;;4.60;;
76447;SDS011;65284;51.040;13.722;2023-04-24T01:49:57;6.50;;;4.13;;
76447;SDS011;65284;51.040;13.722;2023-04-24T01:52:23;9.07;;;4.28;;
76447;SDS011;65284;51.040;13.722;2023-04-24T01:54:50;6.90;;;4.60;;
76447;SDS011;65284;51.040;13.722;2023-04-24T01:57:18;8.20;;;4.40;;
76447;SDS011;65284;51.040;13.722;2023-04-24T01:59:45;5.88;;;4.05;;
76447;SDS011;65284;51.040;13.722;2023-04-24T02:02:11;8.35;;;4.63;;
76447;SDS011;65284;51.040;13.722;2023-04-24T02:04:38;7.10;;;4.55;;
76447;SDS011;65284;51.040;13.722;2023-04-24T02:07:05;8.05;;;4.47;;
76447;SDS011;65284;51.040;13.722;2023-04-24T02:09:31;7.70;;;4.18;;
76447;SDS011;65284;51.040;13.722;2023-04-24T02:11:58;7.70;;;4.50;;
76447;SDS011;65284;51.040;13.722;2023-04-24T02:14:24;6.78;;;4.38;;
76447;SDS011;65284;51.040;13.722;2023-04-24T02:16:51;8.20;;;4.40;;
76447;SDS011;65284;51.040;13.722;2023-04-24T02:19:17;7.28;;;4.72;;
76447;SDS011;65284;51.040;13.722;2023-04-24T02:21:44;8.23;;;4.50;;
76447;SDS011;65284;51.040;13.722;2023-04-24T02:24:10;8.60;;;4.43;;
76447;SDS011;65284;51.040;13.722;2023-04-24T02:26:37;7.95;;;4.80;;
76447;SDS011;65284;51.040;13.722;2023-04-24T02:29:04;8.30;;;4.70;;
76447;SDS011;65284;51.040;13.722;2023-04-24T02:31:30;7.93;;;4.63;;
76447;SDS011;65284;51.040;13.722;2023-04-24T02:33:57;9.00;;;5.10;;
76447;SDS011;65284;51.040;13.722;2023-04-24T02:36:23;7.90;;;4.80;;
76447;SDS011;65284;51.040;13.722;2023-04-24T02:38:50;8.45;;;4.50;;
76447;SDS011;65284;51.040;13.722;2023-04-24T02:41:16;7.45;;;4.35;;
76447;SDS011;65284;51.040;13.722;2023-04-24T02:43:43;6.57;;;4.32;;
76447;SDS011;65284;51.040;13.722;2023-04-24T02:46:09;7.78;;;4.45;;
76447;SDS011;65284;51.040;13.722;2023-04-24T02:48:36;8.55;;;4.70;;
76447;SDS011;65284;51.040;13.722;2023-04-24T02:51:03;7.10;;;4.60;;
76447;SDS011;65284;51.040;13.722;2023-04-24T02:53:29;6.85;;;4.47;;
76447;SDS011;65284;51.040;13.722;2023-04-24T02:55:56;8.23;;;5.10;;
76447;SDS011;65284;51.040;13.722;2023-04-24T02:58:23;7.55;;;4.55;;
76447;SDS011;65284;51.040;13.722;2023-04-24T03:00:52;6.63;;;4.35;;
76447;SDS011;65284;51.040;13.722;2023-04-24T03:03:20;7.03;;;4.20;;
76447;SDS011;65284;51.040;13.722;2023-04-24T03:05:47;7.20;;;4.68;;
76447;SDS011;65284;51.040;13.722;2023-04-24T03:08:13;7.88;;;4.53;;
76447;SDS011;65284;51.040;13.722;2023-04-24T03:10:40;7.60;;;4.82;;
76447;SDS011;65284;51.040;13.722;2023-04-24T03:13:07;7.85;;;4.70;;
76447;SDS011;65284;51.040;13.722;2023-04-24T03:15:33;7.95;;;4.57;;
76447;SDS011;65284;51.040;13.722;2023-04-24T03:18:00;8.50;;;5.00;;
76447;SDS011;65284;51.040;13.722;2023-04-24T03:20:26;8.32;;;4.78;;
76447;SDS011;65284;51.040;13.722;2023-04-24T03:22:53;7.03;;;4.63;;
76447;SDS011;65284;51.040;13.722;2023-04-24T03:25:19;9.18;;;4.72;;
76447;SDS011;65284;51.040;13.722;2023-04-24T03:27:46;8.05;;;3.20;;
76447;SDS011;65284;51.040;13.722;2023-04-24T03:30:12;8.45;;;4.07;;
76447;SDS011;65284;51.040;13.722;2023-04-24T03:32:39;6.35;;;4.20;;
76447;SDS011;65284;51.040;13.722;2023-04-24T03:35:06;8.02;;;4.40;;
76447;SDS011;65284;51.040;13.722;2023-04-24T03:37:34;6.95;;;4.28;;
76447;SDS011;65284;51.040;13.722;2023-04-24T03:40:01;6.85;;;3.97;;
76447;SDS011;65284;51.040;13.722;2023-04-24T03:42:28;8.25;;;4.07;;
76447;SDS011;65284;51.040;13.722;2023-04-24T03:44:54;8.50;;;4.10;;
76447;SDS011;65284;51.040;13.722;2023-04-24T03:47:21;5.88;;;3.30;;
76447;SDS011;65284;51.040;13.722;2023-04-24T03:49:47;6.05;;;2.83;;
76447;SDS011;65284;51.040;13.722;2023-04-24T03:52:13;5.30;;;2.50;;
76447;SDS011;65284;51.040;13.722;2023-04-24T03:54:40;4.60;;;2.25;;
76447;SDS011;65284;51.040;13.722;2023-04-24T03:57:06;3.95;;;2.17;;
76447;SDS011;65284;51.040;13.722;2023-04-24T03:59:33;4.47;;;2.25;;
76447;SDS011;65284;51.040;13.722;2023-04-24T04:01:59;3.55;;;1.92;;
76447;SDS011;65284;51.040;13.722;2023-04-24T04:04:26;3.75;;;1.90;;
76447;SDS011;65284;51.040;13.722;2023-04-24T04:06:53;3.28;;;1.42;;
76447;SDS011;65284;51.040;13.722;2023-04-24T04:09:19;4.07;;;1.20;;
76447;SDS011;65284;51.040;13.722;2023-04-24T04:11:45;3.25;;;1.40;;
76447;SDS011;65284;51.040;13.722;2023-04-24T04:14:12;3.85;;;1.15;;
76447;SDS011;65284;51.040;13.722;2023-04-24T04:16:38;3.95;;;1.23;;
76447;SDS011;65284;51.040;13.722;2023-04-24T04:19:05;2.88;;;1.00;;
76447;SDS011;65284;51.040;13.722;2023-04-24T04:21:31;2.00;;;0.93;;
76447;SDS011;65284;51.040;13.722;2023-04-24T04:23:58;2.15;;;0.82;;
76447;SDS011;65284;51.040;13.722;2023-04-24T04:26:25;1.98;;;0.93;;
76447;SDS011;65284;51.040;13.722;2023-04-24T04:28:51;6.32;;;1.30;;
76447;SDS011;65284;51.040;13.722;2023-04-24T04:31:19;2.35;;;0.90;;
76447;SDS011;65284;51.040;13.722;2023-04-24T04:33:47;1.85;;;0.90;;
76447;SDS011;65284;51.040;13.722;2023-04-24T04:36:13;2.72;;;0.98;;
76447;SDS011;65284;51.040;13.722;2023-04-24T04:38:39;2.63;;;1.10;;
76447;SDS011;65284;51.040;13.722;2023-04-24T04:41:08;5.60;;;1.05;;
76447;SDS011;65284;51.040;13.722;2023-04-24T04:43:34;3.15;;;1.00;;
76447;SDS011;65284;51.040;13.722;2023-04-24T04:46:02;4.32;;;0.70;;
76447;SDS011;65284;51.040;13.722;2023-04-24T04:48:29;1.80;;;0.80;;
76447;SDS011;65284;51.040;13.722;2023-04-24T04:50:57;1.90;;;0.90;;
76447;SDS011;65284;51.040;13.722;2023-04-24T04:53:24;2.15;;;0.90;;
76447;SDS011;65284;51.040;13.722;2023-04-24T04:55:50;2.70;;;1.05;;
76447;SDS011;65284;51.040;13.722;2023-04-24T04:58:17;7.43;;;1.30;;
76447;SDS011;65284;51.040;13.722;2023-04-24T05:00:43;4.45;;;1.23;;
76447;SDS011;65284;51.040;13.722;2023-04-24T05:03:10;2.25;;;1.10;;
76447;SDS011;65284;51.040;13.722;2023-04-24T05:05:46;2.30;;;1.23;;
76447;SDS011;65284;51.040;13.722;2023-04-24T05:08:13;2.63;;;0.80;;
76447;SDS011;65284;51.040;13.722;2023-04-24T05:10:42;1.30;;;0.70;;
76447;SDS011;65284;51.040;13.722;2023-04-24T05:13:09;2.90;;;0.90;;
76447;SDS011;65284;51.040;13.722;2023-04-24T05:15:36;2.05;;;0.70;;
76447;SDS011;65284;51.040;13.722;2023-04-24T05:18:02;2.97;;;0.80;;
76447;SDS011;65284;51.040;13.722;2023-04-24T05:20:29;2.58;;;0.80;;
76447;SDS011;65284;51.040;13.722;2023-04-24T05:22:55;1.50;;;0.70;;
76447;SDS011;65284;51.040;13.722;2023-04-24T05:25:22;3.38;;;1.13;;
76447;SDS011;65284;51.040;13.722;2023-04-24T05:27:48;3.10;;;0.90;;
76447;SDS011;65284;51.040;13.722;2023-04-24T05:30:15;3.85;;;1.20;;
76447;SDS011;65284;51.040;13.722;2023-04-24T05:32:41;3.33;;;1.17;;
76447;SDS011;65284;51.040;13.722;2023-04-24T05:35:08;4.00;;;1.20;;
76447;SDS011;65284;51.040;13.722;2023-04-24T05:37:34;4.55;;;1.30;;
76447;SDS011;65284;51.040;13.722;2023-04-24T05:40:00;1.77;;;0.85;;
76447;SDS011;65284;51.040;13.722;2023-04-24T05:42:27;3.97;;;1.30;;
76447;SDS011;65284;51.040;13.722;2023-04-24T05:44:53;6.45;;;2.20;;
76447;SDS011;65284;51.040;13.722;2023-04-24T05:49:49;2.33;;;1.10;;
76447;SDS011;65284;51.040;13.722;2023-04-24T05:52:15;5.53;;;2.50;;
76447;SDS011;65284;51.040;13.722;2023-04-24T05:54:42;3.03;;;1.00;;
76447;SDS011;65284;51.040;13.722;2023-04-24T05:57:08;2.80;;;1.00;;
76447;SDS011;65284;51.040;13.722;2023-04-24T05:59:36;5.50;;;2.03;;
76447;SDS011;65284;51.040;13.722;2023-04-24T06:02:04;3.95;;;2.00;;
76447;SDS011;65284;51.040;13.722;2023-04-24T06:04:31;3.83;;;1.63;;
76447;SDS011;65284;51.040;13.722;2023-04-24T06:06:59;2.05;;;0.90;;
76447;SDS011;65284;51.040;13.722;2023-04-24T06:09:25;4.38;;;0.90;;
76447;SDS011;65284;51.040;13.722;2023-04-24T06:11:52;3.38;;;0.90;;
76447;SDS011;65284;51.040;13.722;2023-04-24T06:14:19;2.67;;;1.10;;
76447;SDS011;65284;51.040;13.722;2023-04-24T06:16:46;1.88;;;0.80;;
76447;SDS011;65284;51.040;13.722;2023-04-24T06:19:15;1.67;;;0.80;;
76447;SDS011;65284;51.040;13.722;2023-04-24T06:21:41;3.10;;;1.00;;
76447;SDS011;65284;51.040;13.722;2023-04-24T06:24:08;3.50;;;1.27;;
76447;SDS011;65284;51.040;13.722;2023-04-24T06:26:35;2.45;;;0.90;;
76447;SDS011;65284;51.040;13.722;2023-04-24T06:29:01;4.65;;;0.90;;
76447;SDS011;65284;51.040;13.722;2023-04-24T06:31:28;2.42;;;0.90;;
76447;SDS011;65284;51.040;13.722;2023-04-24T06:34:01;2.90;;;0.95;;
76447;SDS011;65284;51.040;13.722;2023-04-24T06:36:27;4.05;;;1.20;;
76447;SDS011;65284;51.040;13.722;2023-04-24T06:38:54;3.65;;;0.90;;
76447;SDS011;65284;51.040;13.722;2023-04-24T06:41:21;4.63;;;0.60;;
76447;SDS011;65284;51.040;13.722;2023-04-24T06:43:47;2.40;;;0.85;;
76447;SDS011;65284;51.040;13.722;2023-04-24T06:46:14;2.20;;;0.80;;
76447;SDS011;65284;51.040;13.722;2023-04-24T06:48:41;3.70;;;1.00;;
76447;SDS011;65284;51.040;13.722;2023-04-24T06:51:07;2.90;;;0.80;;
76447;SDS011;65284;51.040;13.722;2023-04-24T06:53:34;2.45;;;0.63;;
76447;SDS011;65284;51.040;13.722;2023-04-24T06:56:01;1.98;;;0.70;;
76447;SDS011;65284;51.040;13.722;2023-04-24T06:58:27;2.20;;;0.70;;
76447;SDS011;65284;51.040;13.722;2023-04-24T07:00:54;3.97;;;1.00;;
76447;SDS011;65284;51.040;13.722;2023-04-24T07:03:20;2.33;;;0.80;;
76447;SDS011;65284;51.040;13.722;2023-04-24T07:05:50;2.25;;;0.70;;
76447;SDS011;65284;51.040;13.722;2023-04-24T07:08:17;3.42;;;0.60;;
76447;SDS011;65284;51.040;13.722;2023-04-24T07:10:45;19.58;;;10.25;;
76447;SDS011;65284;51.040;13.722;2023-04-24T07:13:12;5.03;;;1.52;;
76447;SDS011;65284;51.040;13.722;2023-04-24T07:15:38;3.05;;;0.65;;
76447;SDS011;65284;51.040;13.722;2023-04-24T07:18:06;3.45;;;0.70;;
76447;SDS011;65284;51.040;13.722;2023-04-24T07:20:32;3.42;;;0.60;;
76447;SDS011;65284;51.040;13.722;2023-04-24T07:22:59;3.30;;;0.60;;
76447;SDS011;65284;51.040;13.722;2023-04-24T07:25:28;3.22;;;0.77;;
76447;SDS011;65284;51.040;13.722;2023-04-24T07:27:55;2.60;;;0.65;;
76447;SDS011;65284;51.040;13.722;2023-04-24T07:30:21;3.40;;;0.60;;
76447;SDS011;65284;51.040;13.722;2023-04-24T07:32:48;1.45;;;0.50;;
76447;SDS011;65284;51.040;13.722;2023-04-24T07:35:14;2.38;;;0.70;;
76447;SDS011;65284;51.040;13.722;2023-04-24T07:37:41;2.83;;;0.73;;
76447;SDS011;65284;51.040;13.722;2023-04-24T07:40:12;2.15;;;0.80;;
76447;SDS011;65284;51.040;13.722;2023-04-24T07:42:39;3.92;;;1.08;;
76447;SDS011;65284;51.040;13.722;2023-04-24T07:45:06;3.15;;;0.90;;
76447;SDS011;65284;51.040;13.722;2023-04-24T07:47:32;2.58;;;0.50;;
76447;SDS011;65284;51.040;13.722;2023-04-24T07:49:59;1.70;;;0.55;;
76447;SDS011;65284;51.040;13.722;2023-04-24T07:52:26;1.83;;;0.50;;
76447;SDS011;65284;51.040;13.722;2023-04-24T07:54:52;1.77;;;0.70;;
76447;SDS011;65284;51.040;13.722;2023-04-24T07:57:24;4.68;;;0.80;;
76447;SDS011;65284;51.040;13.722;2023-04-24T07:59:51;1.92;;;0.60;;
76447;SDS011;65284;51.040;13.722;2023-04-24T08:02:18;2.85;;;0.60;;
76447;SDS011;65284;51.040;13.722;2023-04-24T08:04:44;11.73;;;5.80;;
76447;SDS011;65284;51.040;13.722;2023-04-24T08:07:11;2.85;;;0.70;;
76447;SDS011;65284;51.040;13.722;2023-04-24T08:09:39;2.90;;;0.85;;
76447;SDS011;65284;51.040;13.722;2023-04-24T08:12:05;1.95;;;0.68;;
76447;SDS011;65284;51.040;13.722;2023-04-24T08:14:32;1.80;;;0.50;;
76447;SDS011;65284;51.040;13.722;2023-04-24T08:16:58;1.77;;;0.57;;
76447;SDS011;65284;51.040;13.722;2023-04-24T08:19:26;2.65;;;0.70;;
76447;SDS011;65284;51.040;13.722;2023-04-24T08:21:53;2.72;;;0.60;;
76447;SDS011;65284;51.040;13.722;2023-04-24T08:24:19;2.58;;;0.65;;
76447;SDS011;65284;51.040;13.722;2023-04-24T08:26:46;3.38;;;0.60;;
76447;SDS011;65284;51.040;13.722;2023-04-24T08:29:12;0.73;;;0.40;;
76447;SDS011;65284;51.040;13.722;2023-04-24T08:31:39;1.13;;;0.50;;
76447;SDS011;65284;51.040;13.722;2023-04-24T08:34:06;2.78;;;0.60;;
76447;SDS011;65284;51.040;13.722;2023-04-24T08:36:37;1.40;;;0.50;;
76447;SDS011;65284;51.040;13.722;2023-04-24T08:39:12;2.95;;;0.50;;
76447;SDS011;65284;51.040;13.722;2023-04-24T08:41:41;1.25;;;0.40;;
76447;SDS011;65284;51.040;13.722;2023-04-24T08:44:13;2.72;;;0.60;;
76447;SDS011;65284;51.040;13.722;2023-04-24T08:46:47;1.67;;;0.50;;
76447;SDS011;65284;51.040;13.722;2023-04-24T08:49:15;1.73;;;0.43;;
76447;SDS011;65284;51.040;13.722;2023-04-24T08:51:47;1.98;;;0.60;;
76447;SDS011;65284;51.040;13.722;2023-04-24T08:54:16;2.30;;;0.50;;
76447;SDS011;65284;51.040;13.722;2023-04-24T08:56:47;2.80;;;0.68;;
76447;SDS011;65284;51.040;13.722;2023-04-24T08:59:20;2.33;;;0.55;;
76447;SDS011;65284;51.040;13.722;2023-04-24T09:01:48;1.10;;;0.47;;
76447;SDS011;65284;51.040;13.722;2023-04-24T09:04:26;1.98;;;0.50;;
76447;SDS011;65284;51.040;13.722;2023-04-24T09:07:17;2.55;;;0.75;;
76447;SDS011;65284;51.040;13.722;2023-04-24T09:09:48;5.63;;;1.83;;
76447;SDS011;65284;51.040;13.722;2023-04-24T09:12:19;1.15;;;0.40;;
76447;SDS011;65284;51.040;13.722;2023-04-24T09:14:52;2.97;;;0.55;;
76447;SDS011;65284;51.040;13.722;2023-04-24T09:17:20;2.38;;;0.50;;
76447;SDS011;65284;51.040;13.722;2023-04-24T09:22:15;1.40;;;0.40;;
76447;SDS011;65284;51.040;13.722;2023-04-24T09:24:42;0.93;;;0.40;;
76447;SDS011;65284;51.040;13.722;2023-04-24T09:27:10;1.50;;;0.50;;
76447;SDS011;65284;51.040;13.722;2023-04-24T09:29:38;1.85;;;0.50;;
76447;SDS011;65284;51.040;13.722;2023-04-24T09:32:17;1.30;;;0.40;;
76447;SDS011;65284;51.040;13.722;2023-04-24T09:34:48;1.85;;;0.50;;
76447;SDS011;65284;51.040;13.722;2023-04-24T09:37:58;3.13;;;0.68;;
76447;SDS011;65284;51.040;13.722;2023-04-24T09:40:08;0.98;;;0.40;;
76447;SDS011;65284;51.040;13.722;2023-04-24T09:42:38;2.00;;;0.70;;
76447;SDS011;65284;51.040;13.722;2023-04-24T09:45:09;0.70;;;0.40;;
76447;SDS011;65284;51.040;13.722;2023-04-24T09:47:42;1.20;;;0.38;;
76447;SDS011;65284;51.040;13.722;2023-04-24T09:50:13;2.30;;;0.70;;
76447;SDS011;65284;51.040;13.722;2023-04-24T09:52:43;2.50;;;0.50;;
76447;SDS011;65284;51.040;13.722;2023-04-24T09:55:21;2.55;;;0.50;;
76447;SDS011;65284;51.040;13.722;2023-04-24T09:57:54;2.08;;;0.40;;
76447;SDS011;65284;51.040;13.722;2023-04-24T10:00:22;4.38;;;0.60;;
76447;SDS011;65284;51.040;13.722;2023-04-24T10:02:59;1.55;;;0.60;;
76447;SDS011;65284;51.040;13.722;2023-04-24T10:05:33;1.02;;;0.50;;
76447;SDS011;65284;51.040;13.722;2023-04-24T10:08:02;1.80;;;0.50;;
76447;SDS011;65284;51.040;13.722;2023-04-24T10:10:30;1.83;;;0.50;;
76447;SDS011;65284;51.040;13.722;2023-04-24T10:12:58;2.47;;;0.50;;
76447;SDS011;65284;51.040;13.722;2023-04-24T10:15:26;1.83;;;0.50;;
76447;SDS011;65284;51.040;13.722;2023-04-24T10:17:53;4.28;;;0.60;;
76447;SDS011;65284;51.040;13.722;2023-04-24T10:20:24;2.00;;;0.50;;
76447;SDS011;65284;51.040;13.722;2023-04-24T10:22:52;1.42;;;0.50;;
76447;SDS011;65284;51.040;13.722;2023-04-24T10:25:20;1.92;;;0.40;;
76447;SDS011;65284;51.040;13.722;2023-04-24T10:27:48;3.15;;;0.52;;
76447;SDS011;65284;51.040;13.722;2023-04-24T10:30:20;1.85;;;0.40;;
76447;SDS011;65284;51.040;13.722;2023-04-24T10:35:13;1.20;;;0.60;;
76447;SDS011;65284;51.040;13.722;2023-04-24T10:37:43;0.77;;;0.40;;
76447;SDS011;65284;51.040;13.722;2023-04-24T10:40:12;1.52;;;0.50;;
76447;SDS011;65284;51.040;13.722;2023-04-24T10:42:43;2.17;;;0.50;;
76447;SDS011;65284;51.040;13.722;2023-04-24T10:45:17;2.25;;;0.40;;
76447;SDS011;65284;51.040;13.722;2023-04-24T10:47:56;1.65;;;0.52;;
76447;SDS011;65284;51.040;13.722;2023-04-24T10:50:25;1.75;;;0.50;;
76447;SDS011;65284;51.040;13.722;2023-04-24T10:52:53;1.80;;;0.47;;
76447;SDS011;65284;51.040;13.722;2023-04-24T10:55:47;2.00;;;0.40;;
76447;SDS011;65284;51.040;13.722;2023-04-24T10:58:14;1.98;;;0.60;;
76447;SDS011;65284;51.040;13.722;2023-04-24T11:00:43;1.67;;;0.50;;
76447;SDS011;65284;51.040;13.722;2023-04-24T11:05:58;1.05;;;0.50;;
76447;SDS011;65284;51.040;13.722;2023-04-24T11:10:59;3.83;;;0.73;;
76447;SDS011;65284;51.040;13.722;2023-04-24T11:16:20;2.33;;;0.52;;
76447;SDS011;65284;51.040;13.722;2023-04-24T11:18:52;1.73;;;0.60;;
76447;SDS011;65284;51.040;13.722;2023-04-24T11:21:39;2.47;;;0.60;;
76447;SDS011;65284;51.040;13.722;2023-04-24T11:24:21;0.70;;;0.30;;
76447;SDS011;65284;51.040;13.722;2023-04-24T11:26:53;3.33;;;0.50;;
76447;SDS011;65284;51.040;13.722;2023-04-24T11:32:28;2.08;;;0.70;;
76447;SDS011;65284;51.040;13.722;2023-04-24T11:34:56;1.35;;;0.45;;
76447;SDS011;65284;51.040;13.722;2023-04-24T11:37:34;1.38;;;0.52;;
76447;SDS011;65284;51.040;13.722;2023-04-24T11:40:05;1.27;;;0.40;;
76447;SDS011;65284;51.040;13.722;2023-04-24T11:42:37;1.08;;;0.50;;
76447;SDS011;65284;51.040;13.722;2023-04-24T11:45:09;1.02;;;0.50;;
76447;SDS011;65284;51.040;13.722;2023-04-24T11:47:37;1.80;;;0.70;;
76447;SDS011;65284;51.040;13.722;2023-04-24T11:50:05;1.48;;;0.50;;
76447;SDS011;65284;51.040;13.722;2023-04-24T11:52:36;1.10;;;0.43;;
76447;SDS011;65284;51.040;13.722;2023-04-24T11:55:05;2.13;;;0.57;;
76447;SDS011;65284;51.040;13.722;2023-04-24T11:57:33;9.38;;;4.80;;
76447;SDS011;65284;51.040;13.722;2023-04-24T12:00:01;5.35;;;1.92;;
76447;SDS011;65284;51.040;13.722;2023-04-24T12:02:30;2.67;;;0.60;;
76447;SDS011;65284;51.040;13.722;2023-04-24T12:04:57;1.77;;;0.60;;
76447;SDS011;65284;51.040;13.722;2023-04-24T12:07:24;3.95;;;0.90;;
76447;SDS011;65284;51.040;13.722;2023-04-24T12:09:55;1.45;;;0.63;;
76447;SDS011;65284;51.040;13.722;2023-04-24T12:12:24;2.53;;;0.60;;
76447;SDS011;65284;51.040;13.722;2023-04-24T12:14:53;2.08;;;0.70;;
76447;SDS011;65284;51.040;13.722;2023-04-24T12:17:27;0.82;;;0.47;;
76447;SDS011;65284;51.040;13.722;2023-04-24T12:20:05;2.35;;;0.52;;
76447;SDS011;65284;51.040;13.722;2023-04-24T12:22:49;2.33;;;0.80;;
76447;SDS011;65284;51.040;13.722;2023-04-24T12:25:20;3.20;;;0.80;;
76447;SDS011;65284;51.040;13.722;2023-04-24T12:27:54;6.93;;;0.80;;
76447;SDS011;65284;51.040;13.722;2023-04-24T12:30:43;1.55;;;0.50;;
76447;SDS011;65284;51.040;13.722;2023-04-24T12:33:20;1.35;;;0.60;;
76447;SDS011;65284;51.040;13.722;2023-04-24T12:35:48;1.80;;;0.60;;
76447;SDS011;65284;51.040;13.722;2023-04-24T12:38:22;0.98;;;0.60;;
76447;SDS011;65284;51.040;13.722;2023-04-24T12:41:01;1.55;;;0.82;;
76447;SDS011;65284;51.040;13.722;2023-04-24T12:43:32;3.20;;;0.75;;
76447;SDS011;65284;51.040;13.722;2023-04-24T12:45:59;7.35;;;2.35;;
76447;SDS011;65284;51.040;13.722;2023-04-24T12:48:26;6.80;;;2.75;;
76447;SDS011;65284;51.040;13.722;2023-04-24T12:50:53;1.55;;;0.70;;
76447;SDS011;65284;51.040;13.722;2023-04-24T12:53:19;3.80;;;0.80;;
76447;SDS011;65284;51.040;13.722;2023-04-24T12:55:46;1.08;;;0.60;;
76447;SDS011;65284;51.040;13.722;2023-04-24T12:58:21;1.70;;;0.80;;
76447;SDS011;65284;51.040;13.722;2023-04-24T13:00:48;2.33;;;0.80;;
76447;SDS011;65284;51.040;13.722;2023-04-24T13:03:14;2.03;;;0.80;;
76447;SDS011;65284;51.040;13.722;2023-04-24T13:05:42;1.40;;;0.70;;
76447;SDS011;65284;51.040;13.722;2023-04-24T13:08:09;3.65;;;0.80;;
76447;SDS011;65284;51.040;13.722;2023-04-24T13:10:35;2.25;;;0.73;;
76447;SDS011;65284;51.040;13.722;2023-04-24T13:13:02;2.50;;;0.80;;
76447;SDS011;65284;51.040;13.722;2023-04-24T13:15:29;2.42;;;0.77;;
76447;SDS011;65284;51.040;13.722;2023-04-24T13:17:55;1.98;;;0.88;;
76447;SDS011;65284;51.040;13.722;2023-04-24T13:20:22;2.38;;;0.90;;
76447;SDS011;65284;51.040;13.722;2023-04-24T13:22:49;2.00;;;0.80;;
76447;SDS011;65284;51.040;13.722;2023-04-24T13:25:15;2.15;;;0.70;;
76447;SDS011;65284;51.040;13.722;2023-04-24T13:27:43;1.98;;;0.90;;
76447;SDS011;65284;51.040;13.722;2023-04-24T13:30:09;1.50;;;0.82;;
76447;SDS011;65284;51.040;13.722;2023-04-24T13:32:36;6.80;;;0.98;;
76447;SDS011;65284;51.040;13.722;2023-04-24T13:35:03;2.58;;;0.90;;
76447;SDS011;65284;51.040;13.722;2023-04-24T13:37:30;4.55;;;0.90;;
76447;SDS011;65284;51.040;13.722;2023-04-24T13:39:56;1.50;;;0.70;;
76447;SDS011;65284;51.040;13.722;2023-04-24T13:42:23;2.60;;;0.80;;
76447;SDS011;65284;51.040;13.722;2023-04-24T13:44:49;2.50;;;0.80;;
76447;SDS011;65284;51.040;13.722;2023-04-24T13:47:17;1.83;;;0.80;;
76447;SDS011;65284;51.040;13.722;2023-04-24T13:49:43;2.03;;;0.77;;
76447;SDS011;65284;51.040;13.722;2023-04-24T13:52:10;1.73;;;0.80;;
76447;SDS011;65284;51.040;13.722;2023-04-24T13:54:36;2.72;;;0.70;;
76447;SDS011;65284;51.040;13.722;2023-04-24T13:57:05;10.80;;;3.78;;
76447;SDS011;65284;51.040;13.722;2023-04-24T13:59:32;1.85;;;1.10;;
76447;SDS011;65284;51.040;13.722;2023-04-24T14:01:58;2.28;;;1.10;;
76447;SDS011;65284;51.040;13.722;2023-04-24T14:04:25;3.40;;;1.08;;
76447;SDS011;65284;51.040;13.722;2023-04-24T14:06:52;2.22;;;0.80;;
76447;SDS011;65284;51.040;13.722;2023-04-24T14:09:18;2.58;;;0.90;;
76447;SDS011;65284;51.040;13.722;2023-04-24T14:11:45;2.47;;;0.90;;
76447;SDS011;65284;51.040;13.722;2023-04-24T14:14:12;2.40;;;1.00;;
76447;SDS011;65284;51.040;13.722;2023-04-24T14:16:38;3.55;;;0.90;;
76447;SDS011;65284;51.040;13.722;2023-04-24T14:19:05;1.35;;;0.88;;
76447;SDS011;65284;51.040;13.722;2023-04-24T14:21:32;2.13;;;1.00;;
76447;SDS011;65284;51.040;13.722;2023-04-24T14:23:59;1.55;;;1.00;;
76447;SDS011;65284;51.040;13.722;2023-04-24T14:26:25;2.35;;;0.95;;
76447;SDS011;65284;51.040;13.722;2023-04-24T14:28:52;2.33;;;0.90;;
76447;SDS011;65284;51.040;13.722;2023-04-24T14:31:29;2.38;;;1.00;;
76447;SDS011;65284;51.040;13.722;2023-04-24T14:33:55;1.67;;;0.90;;
76447;SDS011;65284;51.040;13.722;2023-04-24T14:36:22;2.75;;;1.00;;
76447;SDS011;65284;51.040;13.722;2023-04-24T14:38:48;1.67;;;1.00;;
76447;SDS011;65284;51.040;13.722;2023-04-24T14:41:15;3.03;;;0.90;;
76447;SDS011;65284;51.040;13.722;2023-04-24T14:43:41;1.73;;;0.90;;
76447;SDS011;65284;51.040;13.722;2023-04-24T14:46:08;2.35;;;1.10;;
76447;SDS011;65284;51.040;13.722;2023-04-24T14:48:35;1.98;;;1.10;;
76447;SDS011;65284;51.040;13.722;2023-04-24T14:51:01;1.83;;;1.00;;
76447;SDS011;65284;51.040;13.722;2023-04-24T14:53:28;2.35;;;0.93;;
76447;SDS011;65284;51.040;13.722;2023-04-24T14:55:55;2.65;;;1.10;;
76447;SDS011;65284;51.040;13.722;2023-04-24T14:58:22;3.88;;;1.00;;